Time;durP1;ratioP1;P1;durP2;ratioP2;P2;SDS_P1;SDS_P2;PMS_P1;PMS_P2;Temp;Humidity;BMP_temperature;BMP_pressure;BME280_temperature;BME280_humidity;BME280_pressure;Samples;Min_cycle;Max_cycle;Signal;HPM_P1;HPM_P2
2022/03/08 00:01:34;;;;;;;53.68;23.60;;;;;;;9.65;45.31;99568.86;4405320;80;44097;-72
2022/03/08 00:07:36;;;;;;;49.40;23.65;;;;;;;9.87;44.91;99577.97;4421372;80;44517;-71
2022/03/08 00:13:38;;;;;;;50.60;23.02;;;;;;;10.07;44.40;99571.68;4420450;80;43602;-72
2022/03/08 00:19:39;;;;;;;51.00;23.42;;;;;;;10.38;43.95;99564.14;4421929;80;43776;-72
2022/03/08 00:25:40;;;;;;;44.95;21.17;;;;;;;10.22;43.98;99575.42;4412234;80;43769;-72
2022/03/08 00:31:41;;;;;;;49.90;22.15;;;;;;;9.63;45.88;99578.45;4372319;80;44047;-72
2022/03/08 00:37:47;;;;;;;44.90;22.10;;;;;;;9.69;45.80;99580.81;4363005;80;28534;-72
2022/03/08 00:43:48;;;;;;;45.03;21.97;;;;;;;10.23;43.66;99586.47;4369793;80;28513;-72
2022/03/08 00:49:49;;;;;;;44.80;21.48;;;;;;;10.38;43.93;99583.50;4368814;80;43809;-72
2022/03/08 00:55:51;;;;;;;41.58;20.35;;;;;;;10.41;44.33;99579.02;4369181;79;43741;-74
2022/03/08 01:01:53;;;;;;;43.48;18.95;;;;;;;10.25;44.46;99584.39;4366545;81;44398;-79
2022/03/08 01:07:55;;;;;;;39.42;19.73;;;;;;;10.13;45.20;99581.05;4381036;80;28527;-76
2022/03/08 01:13:57;;;;;;;39.08;19.73;;;;;;;10.07;45.43;99591.83;4374460;80;43673;-76
2022/03/08 01:19:58;;;;;;;42.03;20.45;;;;;;;10.01;45.81;99587.59;4368448;79;28544;-76
2022/03/08 01:26:00;;;;;;;38.40;18.10;;;;;;;9.78;46.02;99581.39;4368022;80;44470;-76
2022/03/08 01:32:02;;;;;;;42.20;19.35;;;;;;;9.88;45.89;99580.41;4371544;80;43559;-76
2022/03/08 01:38:03;;;;;;;46.40;20.82;;;;;;;9.97;45.14;99576.15;4364672;80;43771;-77
2022/03/08 01:44:10;;;;;;;45.15;21.97;;;;;;;9.78;45.36;99577.89;4356842;80;43843;-78
2022/03/08 01:50:13;;;;;;;45.95;20.92;;;;;;;9.47;46.17;99573.53;4367183;80;43741;-77
2022/03/08 01:56:15;;;;;;;44.48;21.50;;;;;;;9.10;46.82;99571.87;4343676;80;43779;-77
2022/03/08 02:02:16;;;;;;;46.42;22.27;;;;;;;9.13;46.56;99566.91;4309533;81;44120;-77
2022/03/08 02:08:17;;;;;;;45.92;22.58;;;;;;;8.53;48.47;99562.38;4286249;81;44130;-76
2022/03/08 02:14:19;;;;;;;46.25;21.68;;;;;;;8.23;48.74;99554.67;4227588;82;43827;-77
2022/03/08 02:20:21;;;;;;;46.02;21.45;;;;;;;8.08;49.93;99552.16;4298262;81;43796;-75
2022/03/08 02:26:22;;;;;;;41.80;21.90;;;;;;;8.21;50.29;99554.06;4338909;80;43854;-77
2022/03/08 02:32:24;;;;;;;42.88;21.65;;;;;;;8.72;47.79;99551.88;4335771;79;44231;-77
2022/03/08 02:38:25;;;;;;;49.08;22.37;;;;;;;7.69;49.98;99555.85;4368825;79;44531;-77
2022/03/08 02:44:27;;;;;;;42.50;21.02;;;;;;;8.06;50.60;99569.77;4372653;79;43835;-78
2022/03/08 02:50:29;;;;;;;50.12;21.48;;;;;;;7.91;50.96;99568.61;4377505;79;44158;-77
2022/03/08 02:56:30;;;;;;;43.50;20.40;;;;;;;7.99;49.57;99568.09;4363929;79;43827;-76
2022/03/08 03:02:32;;;;;;;46.83;21.05;;;;;;;7.74;51.46;99567.30;4368339;79;43756;-76
2022/03/08 03:08:33;;;;;;;42.90;19.92;;;;;;;7.43;51.06;99579.29;4369019;79;43756;-76
2022/03/08 03:14:35;;;;;;;46.45;22.32;;;;;;;6.75;52.86;99582.81;4363360;79;43815;-77
2022/03/08 03:20:36;;;;;;;43.42;19.90;;;;;;;6.84;53.07;99589.67;4382208;79;43764;-76
2022/03/08 03:26:38;;;;;;;43.85;20.75;;;;;;;7.68;50.74;99595.16;4366557;79;43744;-78
2022/03/08 03:32:40;;;;;;;38.53;17.80;;;;;;;7.46;52.31;99601.12;4371732;79;44522;-77
2022/03/08 03:38:41;;;;;;;38.33;17.55;;;;;;;7.38;53.78;99611.98;4429159;79;44509;-76
2022/03/08 03:44:43;;;;;;;41.90;18.45;;;;;;;7.60;54.15;99610.56;4352804;80;44120;-77
2022/03/08 03:50:44;;;;;;;41.33;18.87;;;;;;;8.09;52.56;99606.04;4355350;81;42838;-76
2022/03/08 03:56:46;;;;;;;33.60;18.23;;;;;;;8.14;52.49;99619.67;4354997;81;44308;-76
2022/03/08 04:02:47;;;;;;;38.23;19.00;;;;;;;8.88;50.11;99618.48;4357118;81;44462;-77
2022/03/08 04:08:49;;;;;;;42.50;20.95;;;;;;;8.72;50.74;99612.20;4364411;81;43792;-77
2022/03/08 04:14:50;;;;;;;44.50;21.25;;;;;;;8.77;50.49;99617.26;4349428;81;43780;-77
2022/03/08 04:20:51;;;;;;;41.05;20.27;;;;;;;8.86;49.92;99628.59;4341945;80;43589;-77
2022/03/08 04:26:53;;;;;;;39.25;19.85;;;;;;;9.28;48.49;99636.45;4350418;80;42964;-76
2022/03/08 04:32:57;;;;;;;55.40;20.75;;;;;;;9.52;47.81;99636.83;4347537;81;44133;-76
2022/03/08 04:39:01;;;;;;;41.55;20.43;;;;;;;9.25;48.40;99636.03;4364662;81;43776;-78
2022/03/08 04:45:03;;;;;;;41.45;20.10;;;;;;;9.58;47.59;99649.92;4351342;81;43760;-78
2022/03/08 04:51:04;;;;;;;43.83;20.80;;;;;;;9.60;47.38;99648.69;4344251;81;28535;-78
2022/03/08 04:57:06;;;;;;;49.80;22.07;;;;;;;10.13;46.36;99646.03;4348473;81;28545;-78
2022/03/08 05:03:08;;;;;;;47.85;22.20;;;;;;;9.29;48.00;99655.54;4350381;81;44501;-79
2022/03/08 05:09:09;;;;;;;45.98;21.20;;;;;;;9.40;48.31;99659.97;4349949;80;43788;-79
2022/03/08 05:15:11;;;;;;;43.02;19.42;;;;;;;9.41;48.33;99662.42;4348049;80;43836;-78
2022/03/08 05:21:12;;;;;;;44.70;20.45;;;;;;;10.01;47.07;99674.10;4354886;81;28501;-79
2022/03/08 05:27:14;;;;;;;39.53;19.23;;;;;;;9.94;46.96;99670.60;4422128;79;44019;-73
2022/03/08 05:33:15;;;;;;;43.95;20.32;;;;;;;9.76;47.03;99682.32;4369278;80;43748;-75
2022/03/08 05:39:16;;;;;;;45.95;21.65;;;;;;;9.84;47.45;99683.11;4359550;81;28518;-76
2022/03/08 05:45:17;;;;;;;44.18;21.10;;;;;;;9.32;48.82;99686.48;4365299;81;43851;-74
2022/03/08 05:51:19;;;;;;;46.58;22.45;;;;;;;9.86;48.43;99689.93;4358114;81;43764;-77
2022/03/08 05:57:20;;;;;;;49.48;23.12;;;;;;;9.34;49.38;99695.17;4368426;81;44463;-73
2022/03/08 06:03:21;;;;;;;45.12;22.70;;;;;;;9.37;49.07;99699.28;4369633;81;28596;-73
2022/03/08 06:09:22;;;;;;;31.50;16.37;;;;;;;9.94;48.50;99696.12;4359419;80;28501;-76
2022/03/08 06:15:24;;;;;;;31.60;15.00;;;;;;;9.70;47.52;99697.11;4351326;81;28584;-76
2022/03/08 06:21:26;;;;;;;30.27;13.90;;;;;;;9.77;47.60;99697.90;4363866;81;43784;-74
2022/03/08 06:27:27;;;;;;;29.42;14.38;;;;;;;9.55;47.63;99695.45;4365721;81;43420;-76
2022/03/08 06:33:28;;;;;;;25.10;13.00;;;;;;;9.85;47.63;99700.91;4349462;81;43823;-77
2022/03/08 06:39:30;;;;;;;23.15;12.18;;;;;;;10.38;45.77;99698.54;4347619;80;43228;-72
2022/03/08 06:45:31;;;;;;;20.37;11.05;;;;;;;9.88;46.78;99697.78;4353195;81;44466;-72
2022/03/08 06:51:32;;;;;;;23.32;10.90;;;;;;;10.15;45.78;99714.66;4346463;80;44474;-73
2022/03/08 06:57:33;;;;;;;18.15;9.05;;;;;;;9.80;46.43;99719.48;4346890;81;28527;-72
2022/03/08 07:03:35;;;;;;;22.00;12.07;;;;;;;10.10;45.94;99721.70;4348946;80;28541;-72
2022/03/08 07:09:36;;;;;;;20.80;10.08;;;;;;;10.77;45.02;99713.91;4352649;81;28602;-72
2022/03/08 07:15:38;;;;;;;15.58;8.03;;;;;;;10.46;45.48;99706.40;4344257;80;28544;-72
2022/03/08 07:21:41;;;;;;;13.68;6.70;;;;;;;10.88;44.19;99715.91;4336963;81;28496;-70
2022/03/08 07:27:43;;;;;;;13.75;7.20;;;;;;;11.10;43.76;99708.31;4347099;80;28530;-72
2022/03/08 07:33:45;;;;;;;13.10;7.10;;;;;;;11.23;43.46;99705.22;4355985;81;28521;-72
2022/03/08 07:39:46;;;;;;;15.23;7.47;;;;;;;10.91;43.70;99691.78;4355458;80;28557;-72
2022/03/08 07:45:47;;;;;;;12.58;6.50;;;;;;;11.32;42.90;99709.80;4351536;81;28611;-72
2022/03/08 07:51:50;;;;;;;14.03;7.17;;;;;;;11.65;42.06;99714.91;4354278;81;28537;-73
2022/03/08 07:57:51;;;;;;;14.58;7.90;;;;;;;12.03;41.53;99715.80;4350584;81;28487;-72
2022/03/08 08:03:52;;;;;;;17.27;8.00;;;;;;;11.91;41.33;99718.37;4355074;81;28494;-72
2022/03/08 08:09:53;;;;;;;16.45;8.10;;;;;;;11.49;42.07;99718.14;4355640;81;28489;-72
2022/03/08 08:15:55;;;;;;;14.18;7.70;;;;;;;12.11;41.16;99726.29;4347533;81;28501;-72
2022/03/08 08:21:57;;;;;;;15.40;7.92;;;;;;;12.08;41.14;99716.48;4347456;81;28517;-72
2022/03/08 08:27:58;;;;;;;18.65;8.55;;;;;;;12.32;40.63;99726.05;4347010;81;28502;-72
2022/03/08 08:34:00;;;;;;;19.75;9.50;;;;;;;12.71;39.99;99725.80;4355988;81;28564;-72
2022/03/08 08:40:04;;;;;;;19.73;9.68;;;;;;;12.45;40.60;99734.51;4356514;81;28540;-73
2022/03/08 08:46:05;;;;;;;18.42;10.25;;;;;;;12.78;40.30;99740.00;4367696;80;28458;-72
2022/03/08 08:52:07;;;;;;;18.42;9.40;;;;;;;12.67;40.44;99743.77;4345848;80;28513;-72
2022/03/08 08:58:09;;;;;;;20.40;10.18;;;;;;;13.14;39.45;99740.12;4358532;80;28533;-72
2022/03/08 09:04:10;;;;;;;22.25;10.35;;;;;;;12.94;39.43;99742.06;4342313;81;28573;-72
2022/03/08 09:10:12;;;;;;;18.82;9.80;;;;;;;12.92;39.08;99747.39;4434425;78;28549;-72
2022/03/08 09:16:15;;;;;;;20.17;9.75;;;;;;;12.24;40.42;99748.75;4349677;80;28521;-72
2022/03/08 09:22:16;;;;;;;18.23;9.35;;;;;;;12.34;39.95;99753.09;4346060;81;28491;-72
2022/03/08 09:28:17;;;;;;;18.55;9.50;;;;;;;12.86;38.86;99768.53;4345757;81;28603;-72
2022/03/08 09:34:19;;;;;;;20.72;9.95;;;;;;;11.82;40.71;99754.75;4340278;80;28553;-71
2022/03/08 09:40:21;;;;;;;17.00;8.75;;;;;;;11.71;41.19;99752.25;4369598;80;28499;-72
2022/03/08 09:46:22;;;;;;;13.83;7.15;;;;;;;12.94;38.73;99759.61;4369931;80;28505;-72
2022/03/08 09:52:23;;;;;;;19.32;9.80;;;;;;;12.57;38.57;99758.86;4368739;80;28492;-72
2022/03/08 09:58:25;;;;;;;16.42;7.97;;;;;;;12.88;38.42;99767.80;4343487;80;28505;-72
2022/03/08 10:04:26;;;;;;;14.18;6.95;;;;;;;12.83;38.15;99761.20;4372382;80;28541;-73
2022/03/08 10:10:31;;;;;;;13.43;5.92;;;;;;;13.32;36.71;99741.39;4416758;80;28500;-72
2022/03/08 10:16:42;;;;;;;11.88;6.50;;;;;;;12.40;36.90;99754.06;4426944;80;28527;-72
2022/03/08 10:22:44;;;;;;;13.10;6.28;;;;;;;12.39;37.62;99760.51;4431155;80;28540;-75
2022/03/08 10:28:48;;;;;;;9.40;4.30;;;;;;;12.97;37.01;99762.38;4417026;80;28497;-72
2022/03/08 10:34:54;;;;;;;8.18;4.08;;;;;;;12.54;35.61;99777.11;4395238;79;28523;-73
2022/03/08 10:40:56;;;;;;;;;;;;;;;13.24;34.97;99752.02;4394627;81;28535;-73
2022/03/08 10:47:05;;;;;;;8.60;3.70;;;;;;;13.35;34.02;99735.52;4376926;80;20949;-73
2022/03/08 10:53:08;;;;;;;10.32;4.28;;;;;;;13.28;33.49;99733.48;4366866;80;28538;-72
2022/03/08 10:59:11;;;;;;;9.03;3.70;;;;;;;13.29;34.52;99739.17;4339543;80;28485;-73
2022/03/08 11:05:14;;;;;;;4.08;2.40;;;;;;;12.09;34.51;99742.37;4367960;80;28530;-72
2022/03/08 11:11:17;;;;;;;5.40;2.42;;;;;;;13.72;32.06;99714.81;4353511;79;28552;-72
2022/03/08 11:17:20;;;;;;;7.97;3.83;;;;;;;14.04;31.50;99716.58;4376399;80;28521;-73
2022/03/08 11:23:22;;;;;;;7.75;3.85;;;;;;;14.49;32.47;99708.86;4372609;79;28509;-73
2022/03/08 11:29:26;;;;;;;9.15;3.72;;;;;;;14.35;32.82;99702.89;4369623;80;28466;-73
2022/03/08 11:36:04;;;;;;;5.80;3.33;;;;;;;13.99;32.53;99698.08;4380503;79;28559;-72
2022/03/08 11:42:30;;;;;;;6.22;2.87;;;;;;;14.45;31.32;99696.34;4373317;80;28536;-72
2022/03/08 11:48:31;;;;;;;4.83;2.62;;;;;;;14.83;30.65;99683.25;4375136;79;28552;-73
2022/03/08 11:54:33;;;;;;;5.72;2.90;;;;;;;15.03;29.80;99674.66;4365230;80;28527;-73
2022/03/08 12:00:54;;;;;;;5.95;3.00;;;;;;;14.59;30.61;99683.86;4382282;80;28485;-73
2022/03/08 12:07:00;;;;;;;5.65;2.35;;;;;;;13.37;31.77;99671.28;4376380;80;28513;-72
2022/03/08 12:13:01;;;;;;;4.80;2.20;;;;;;;13.78;31.06;99659.80;4370172;80;28616;-72
2022/03/08 12:19:04;;;;;;;4.30;2.40;;;;;;;13.28;31.97;99649.77;4380494;80;28496;-73
2022/03/08 12:25:11;;;;;;;6.80;2.80;;;;;;;11.64;33.82;99649.97;4370941;81;28534;-72
2022/03/08 12:31:12;;;;;;;5.08;2.67;;;;;;;12.63;32.92;99644.63;4370527;79;28537;-72
2022/03/08 12:37:19;;;;;;;5.67;3.12;;;;;;;12.99;31.84;99632.06;4355419;79;28519;-72
2022/03/08 12:43:20;;;;;;;4.75;2.60;;;;;;;12.30;33.05;99645.92;4382596;79;28465;-73
2022/03/08 12:49:22;;;;;;;5.10;2.77;;;;;;;12.22;32.93;99633.04;4365244;79;28512;-73
2022/03/08 12:55:37;;;;;;;7.20;3.80;;;;;;;12.23;33.25;99632.53;4362667;79;28542;-72
2022/03/08 13:01:38;;;;;;;6.07;2.77;;;;;;;12.85;32.26;99621.16;4362079;80;28519;-72
2022/03/08 13:07:52;;;;;;;4.95;2.70;;;;;;;13.71;31.15;99607.78;4375342;80;28622;-72
2022/03/08 13:13:54;;;;;;;5.50;2.35;;;;;;;14.18;30.97;99605.48;4361547;80;28481;-72
2022/03/08 13:19:55;;;;;;;4.62;2.60;;;;;;;14.39;29.99;99608.02;4366052;80;28556;-72
2022/03/08 13:26:02;;;;;;;5.42;2.80;;;;;;;14.27;29.73;99605.91;4376652;80;28476;-72
2022/03/08 13:32:06;;;;;;;;;;;;;;;13.91;30.47;99611.42;4379863;80;28522;-71
2022/03/08 13:38:14;;;;;;;8.65;3.77;;;;;;;14.54;30.23;99608.02;4378654;80;20227;-72
2022/03/08 13:44:15;;;;;;;9.88;4.30;;;;;;;14.22;30.80;99612.03;4372756;80;28509;-72
2022/03/08 13:50:16;;;;;;;11.65;5.65;;;;;;;14.59;30.59;99602.69;4363981;80;28543;-72
2022/03/08 13:56:18;;;;;;;13.03;6.03;;;;;;;15.18;29.97;99610.44;4371371;80;28497;-72
2022/03/08 14:02:20;;;;;;;14.18;6.37;;;;;;;15.22;30.40;99614.03;4369362;80;28504;-72
2022/03/08 14:08:28;;;;;;;13.18;6.22;;;;;;;16.09;29.75;99601.36;4371108;79;28628;-72
2022/03/08 14:14:30;;;;;;;14.40;6.85;;;;;;;15.17;30.60;99614.77;4374634;80;28536;-71
2022/03/08 14:20:38;;;;;;;11.43;6.42;;;;;;;15.15;30.62;99604.69;4373500;80;28523;-72
2022/03/08 14:26:43;;;;;;;11.60;6.37;;;;;;;16.02;29.56;99604.27;4372616;80;28516;-72
2022/03/08 14:32:44;;;;;;;11.18;6.08;;;;;;;15.21;30.53;99601.55;4371887;79;28513;-72
2022/03/08 14:38:48;;;;;;;14.98;7.92;;;;;;;15.78;29.79;99592.83;4374830;79;28449;-73
2022/03/08 14:44:55;;;;;;;18.82;8.35;;;;;;;14.40;31.47;99596.13;4374105;80;28577;-73
2022/03/08 14:50:57;;;;;;;17.75;8.40;;;;;;;14.68;31.46;99593.62;4366561;80;28501;-71
2022/03/08 14:56:58;;;;;;;17.70;8.25;;;;;;;14.64;31.30;99591.42;4364382;80;28559;-72
2022/03/08 15:03:00;;;;;;;16.20;8.03;;;;;;;14.33;31.60;99599.53;4362100;80;28528;-72
2022/03/08 15:09:05;;;;;;;17.30;8.50;;;;;;;14.04;32.32;99603.03;4365839;80;28558;-72
2022/03/08 15:15:07;;;;;;;18.40;8.80;;;;;;;14.19;32.06;99598.45;4383053;80;28465;-72
2022/03/08 15:21:10;;;;;;;15.78;7.83;;;;;;;13.40;32.96;99597.08;4354098;81;28529;-72
2022/03/08 15:27:11;;;;;;;15.80;7.70;;;;;;;13.37;33.18;99601.61;4369060;80;28513;-73
2022/03/08 15:33:13;;;;;;;18.55;7.80;;;;;;;13.55;32.80;99613.38;4395404;80;28513;-73
2022/03/08 15:39:15;;;;;;;14.38;7.72;;;;;;;13.76;32.54;99618.69;4411518;80;28460;-72
2022/03/08 15:45:24;;;;;;;14.87;7.67;;;;;;;13.94;32.39;99621.75;4412473;80;28551;-74
2022/03/08 15:51:24;;;;;;;13.13;7.13;;;;;;;13.89;32.23;99633.83;4413770;80;28531;-72
2022/03/08 15:57:26;;;;;;;12.80;6.65;;;;;;;13.84;32.51;99629.65;4404088;80;28560;-71
2022/03/08 16:03:27;;;;;;;15.70;7.37;;;;;;;13.17;33.05;99644.63;4422263;80;28559;-70
2022/03/08 16:09:31;;;;;;;10.53;5.17;;;;;;;12.99;33.38;99656.35;4418550;80;28529;-71
2022/03/08 16:15:35;;;;;;;12.30;5.67;;;;;;;13.47;32.49;99657.77;4406181;80;28538;-71
2022/03/08 16:21:37;;;;;;;8.85;4.37;;;;;;;12.52;33.59;99665.13;4415661;80;28573;-72
2022/03/08 16:27:38;;;;;;;9.53;4.70;;;;;;;12.06;33.92;99678.15;4408589;80;28520;-75
2022/03/08 16:33:40;;;;;;;7.58;4.40;;;;;;;12.64;33.25;99670.04;4393860;79;28530;-72
2022/03/08 16:39:42;;;;;;;7.50;3.77;;;;;;;12.57;33.30;99677.94;4377702;79;28521;-73
2022/03/08 16:45:43;;;;;;;9.75;4.78;;;;;;;12.45;33.56;99676.53;4394164;79;28538;-73
2022/03/08 16:51:45;;;;;;;10.28;5.05;;;;;;;12.25;34.22;99689.22;4390946;81;28571;-73
2022/03/08 16:57:48;;;;;;;9.33;4.55;;;;;;;11.84;34.84;99698.77;4374196;79;28519;-73
2022/03/08 17:03:49;;;;;;;9.20;4.58;;;;;;;12.02;34.47;99707.42;4369521;80;28598;-74
2022/03/08 17:09:51;;;;;;;9.65;4.55;;;;;;;11.81;35.08;99714.85;4367413;81;28548;-72
2022/03/08 17:15:52;;;;;;;8.10;4.28;;;;;;;11.75;35.05;99716.27;4367553;80;28509;-74
2022/03/08 17:21:54;;;;;;;10.40;5.05;;;;;;;12.71;33.87;99719.86;4370503;80;28536;-79
2022/03/08 17:27:55;;;;;;;12.65;5.95;;;;;;;11.76;35.29;99722.77;4386703;80;28550;-80
2022/03/08 17:33:57;;;;;;;11.43;5.53;;;;;;;12.06;34.98;99719.38;4381336;81;28561;-79
2022/03/08 17:40:00;;;;;;;12.65;5.30;;;;;;;11.55;35.70;99729.39;4387659;79;28536;-79
2022/03/08 17:46:05;;;;;;;9.33;5.08;;;;;;;11.28;36.13;99731.78;4378524;79;28523;-78
2022/03/08 17:52:05;;;;;;;12.20;5.25;;;;;;;11.77;35.71;99728.48;4363757;79;28509;-79
2022/03/08 17:58:07;;;;;;;9.88;5.40;;;;;;;11.94;35.38;99728.72;4375973;80;28528;-79
2022/03/08 18:04:09;;;;;;;8.18;4.17;;;;;;;11.30;36.49;99720.80;4373490;80;28540;-78
2022/03/08 18:10:10;;;;;;;10.85;4.62;;;;;;;11.90;35.36;99735.59;4378308;80;28536;-81
2022/03/08 18:16:11;;;;;;;10.30;5.42;;;;;;;12.04;35.44;99729.57;4367308;80;28532;-78
2022/03/08 18:22:13;;;;;;;8.90;4.85;;;;;;;11.57;36.14;99738.07;4378873;80;28543;-77
2022/03/08 18:28:15;;;;;;;11.20;4.90;;;;;;;12.44;34.85;99742.30;4350214;80;33802;-78
2022/03/08 18:34:19;;;;;;;10.58;5.47;;;;;;;12.21;35.30;99739.77;4373257;80;28550;-77
2022/03/08 18:40:20;;;;;;;11.80;5.62;;;;;;;12.62;34.85;99736.89;4372707;80;28539;-77
2022/03/08 18:46:23;;;;;;;12.93;6.00;;;;;;;12.11;35.62;99728.15;4387537;79;28497;-77
2022/03/08 18:52:24;;;;;;;12.45;5.97;;;;;;;12.06;35.86;99731.51;4395222;80;28537;-78
2022/03/08 18:58:26;;;;;;;15.55;6.80;;;;;;;12.21;35.89;99724.94;4387656;80;28536;-78
2022/03/08 19:04:28;;;;;;;14.07;6.80;;;;;;;12.02;36.07;99724.94;4372691;79;28513;-77
2022/03/08 19:10:30;;;;;;;13.85;6.20;;;;;;;11.97;36.25;99712.61;4379152;80;28517;-75
2022/03/08 19:16:31;;;;;;;11.28;5.95;;;;;;;12.11;35.96;99711.97;4373010;80;28558;-75
2022/03/08 19:22:33;;;;;;;11.33;5.08;;;;;;;12.29;35.67;99719.77;4371443;79;28486;-79
2022/03/08 19:28:35;;;;;;;14.75;5.75;;;;;;;12.35;35.66;99722.92;4355986;80;28533;-78
2022/03/08 19:34:36;;;;;;;10.15;5.30;;;;;;;12.53;35.40;99716.67;4383126;80;28487;-78
2022/03/08 19:40:39;;;;;;;12.13;6.58;;;;;;;12.43;35.45;99717.73;4376119;80;28524;-77
2022/03/08 19:46:40;;;;;;;14.25;6.55;;;;;;;11.96;36.22;99718.53;4344911;79;28543;-78
2022/03/08 19:52:42;;;;;;;15.60;7.40;;;;;;;12.39;35.58;99723.59;4384142;79;28517;-79
2022/03/08 19:58:44;;;;;;;22.42;10.45;;;;;;;12.63;35.35;99733.14;4369667;80;28516;-78
2022/03/08 20:04:46;;;;;;;21.40;10.23;;;;;;;12.38;35.67;99713.83;4392767;80;28494;-79
2022/03/08 20:10:48;;;;;;;22.32;10.85;;;;;;;12.46;35.82;99706.48;4370474;79;28524;-78
2022/03/08 20:16:50;;;;;;;24.98;12.75;;;;;;;12.60;35.86;99712.53;4369219;80;28552;-80
2022/03/08 20:22:53;;;;;;;27.70;13.45;;;;;;;12.58;35.82;99718.15;4382907;80;28491;-78
2022/03/08 20:28:58;;;;;;;26.35;13.10;;;;;;;12.77;35.50;99718.95;4392007;79;28612;-78
2022/03/08 20:34:59;;;;;;;29.02;13.35;;;;;;;12.47;36.06;99718.41;4363996;79;28523;-80
2022/03/08 20:41:01;;;;;;;34.23;16.82;;;;;;;12.87;35.54;99711.64;4443762;79;28559;-78
2022/03/08 20:47:05;;;;;;;40.43;18.30;;;;;;;12.87;35.86;99713.53;4373577;80;28508;-79
2022/03/08 20:53:07;;;;;;;41.98;20.32;;;;;;;12.75;36.00;99724.27;4351822;80;28484;-82
2022/03/08 20:59:11;;;;;;;41.50;20.37;;;;;;;12.64;36.36;99721.80;4377662;80;28542;-81
2022/03/08 21:05:13;;;;;;;43.58;21.55;;;;;;;12.71;36.35;99729.84;4380546;80;28520;-79
2022/03/08 21:11:14;;;;;;;43.92;21.80;;;;;;;12.53;36.80;99725.57;4364336;79;28481;-80
2022/03/08 21:17:16;;;;;;;48.23;22.90;;;;;;;12.49;37.05;99729.78;4387049;80;28556;-78
2022/03/08 21:23:18;;;;;;;48.58;23.18;;;;;;;12.62;36.80;99732.01;4365474;80;28578;-78
2022/03/08 21:29:19;;;;;;;51.20;23.77;;;;;;;12.63;36.92;99733.65;4432413;79;28558;-78
2022/03/08 21:35:21;;;;;;;53.95;24.77;;;;;;;12.67;36.83;99745.11;4268443;80;28567;-77
2022/03/08 21:41:23;;;;;;;48.48;22.98;;;;;;;12.76;36.80;99743.45;4371387;80;28507;-77
2022/03/08 21:47:25;;;;;;;51.80;25.23;;;;;;;12.77;36.78;99745.09;4314281;81;28544;-79
2022/03/08 21:53:26;;;;;;;53.78;24.57;;;;;;;12.66;37.05;99734.56;4298861;81;28512;-79
2022/03/08 21:59:28;;;;;;;47.73;23.90;;;;;;;13.23;36.01;99719.83;4328035;81;28495;-78
2022/03/08 22:05:31;;;;;;;49.63;24.43;;;;;;;13.23;35.90;99732.82;4285053;81;28515;-79
2022/03/08 22:11:32;;;;;;;49.58;24.35;;;;;;;13.09;36.17;99729.49;4316643;81;28487;-79
2022/03/08 22:17:34;;;;;;;50.50;23.70;;;;;;;13.03;36.33;99721.50;4325492;80;28458;-80
2022/03/08 22:23:36;;;;;;;49.98;23.98;;;;;;;13.24;35.96;99716.91;4336166;80;28490;-78
2022/03/08 22:29:38;;;;;;;51.13;25.30;;;;;;;13.29;35.86;99711.33;4333337;80;28590;-79
2022/03/08 22:35:39;;;;;;;59.25;28.98;;;;;;;12.76;36.75;99721.87;4431661;78;28481;-80
2022/03/08 22:41:41;;;;;;;60.88;29.60;;;;;;;13.13;36.07;99718.23;4449885;79;28538;-80
2022/03/08 22:47:42;;;;;;;60.38;29.35;;;;;;;13.15;36.04;99733.14;4437459;78;28452;-79
2022/03/08 22:53:44;;;;;;;68.05;31.07;;;;;;;13.02;36.40;99734.16;4437380;78;28540;-74
2022/03/08 22:59:46;;;;;;;67.55;31.12;;;;;;;12.71;37.09;99752.23;4428493;78;28543;-74
2022/03/08 23:05:47;;;;;;;64.87;31.97;;;;;;;12.86;36.81;99755.03;4443610;78;28505;-73
2022/03/08 23:11:48;;;;;;;62.30;31.10;;;;;;;12.98;36.87;99746.48;4416238;80;28541;-73
2022/03/08 23:17:50;;;;;;;67.42;30.30;;;;;;;13.02;36.80;99734.70;4420921;78;28544;-73
2022/03/08 23:23:51;;;;;;;65.75;31.60;;;;;;;13.07;36.95;99732.95;4458078;78;28440;-74
2022/03/08 23:29:52;;;;;;;67.50;32.15;;;;;;;12.98;37.19;99732.98;4449695;78;28528;-73
2022/03/08 23:35:53;;;;;;;67.60;31.73;;;;;;;13.13;36.86;99733.91;4476047;78;28457;-74
2022/03/08 23:41:55;;;;;;;73.55;33.55;;;;;;;12.97;37.19;99733.50;4376133;81;28456;-75
2022/03/08 23:47:56;;;;;;;70.00;33.38;;;;;;;13.01;37.08;99727.63;4397480;80;28516;-75
2022/03/08 23:53:58;;;;;;;70.95;34.00;;;;;;;12.57;37.86;99742.67;4412945;81;28615;-78
2022/03/08 23:59:59;;;;;;;75.03;35.58;;;;;;;12.59;37.81;99744.61;4410081;79;28521;-78
